sensor_id;sensor_type;location;lat;lon;timestamp;P1;durP1;ratioP1;P2;durP2;ratioP2
19347;SDS011;9810;52.480;9.806;2023-03-17T00:01:38;3.50;;;1.57;;
19347;SDS011;9810;52.480;9.806;2023-03-17T00:04:39;11.30;;;1.97;;
19347;SDS011;9810;52.480;9.806;2023-03-17T00:07:23;3.37;;;1.77;;
19347;SDS011;9810;52.480;9.806;2023-03-17T00:10:02;3.03;;;1.80;;
19347;SDS011;9810;52.480;9.806;2023-03-17T00:12:40;3.30;;;1.63;;
19347;SDS011;9810;52.480;9.806;2023-03-17T00:15:17;3.60;;;1.60;;
19347;SDS011;9810;52.480;9.806;2023-03-17T00:17:49;2.23;;;1.80;;
19347;SDS011;9810;52.480;9.806;2023-03-17T00:20:23;3.43;;;2.20;;
19347;SDS011;9810;52.480;9.806;2023-03-17T00:22:55;4.60;;;2.03;;
19347;SDS011;9810;52.480;9.806;2023-03-17T00:25:31;2.73;;;1.57;;
19347;SDS011;9810;52.480;9.806;2023-03-17T00:28:15;4.07;;;1.97;;
19347;SDS011;9810;52.480;9.806;2023-03-17T00:30:47;4.40;;;1.70;;
19347;SDS011;9810;52.480;9.806;2023-03-17T00:33:27;3.67;;;2.10;;
19347;SDS011;9810;52.480;9.806;2023-03-17T00:36:09;2.30;;;2.10;;
19347;SDS011;9810;52.480;9.806;2023-03-17T00:38:41;6.43;;;1.93;;
19347;SDS011;9810;52.480;9.806;2023-03-17T00:41:14;3.83;;;1.77;;
19347;SDS011;9810;52.480;9.806;2023-03-17T00:43:42;2.57;;;1.60;;
19347;SDS011;9810;52.480;9.806;2023-03-17T00:46:14;1.80;;;1.63;;
19347;SDS011;9810;52.480;9.806;2023-03-17T00:48:46;1.80;;;1.43;;
19347;SDS011;9810;52.480;9.806;2023-03-17T00:51:18;2.47;;;1.90;;
19347;SDS011;9810;52.480;9.806;2023-03-17T00:53:58;4.60;;;1.97;;
19347;SDS011;9810;52.480;9.806;2023-03-17T00:56:27;2.77;;;1.90;;
19347;SDS011;9810;52.480;9.806;2023-03-17T00:58:57;2.03;;;1.73;;
19347;SDS011;9810;52.480;9.806;2023-03-17T01:01:26;6.00;;;2.17;;
19347;SDS011;9810;52.480;9.806;2023-03-17T01:03:54;4.40;;;1.90;;
19347;SDS011;9810;52.480;9.806;2023-03-17T01:06:25;2.13;;;1.67;;
19347;SDS011;9810;52.480;9.806;2023-03-17T01:08:55;3.00;;;1.70;;
19347;SDS011;9810;52.480;9.806;2023-03-17T01:11:26;2.10;;;1.60;;
19347;SDS011;9810;52.480;9.806;2023-03-17T01:13:58;3.63;;;2.10;;
19347;SDS011;9810;52.480;9.806;2023-03-17T01:16:27;3.97;;;1.77;;
19347;SDS011;9810;52.480;9.806;2023-03-17T01:18:54;5.17;;;2.40;;
19347;SDS011;9810;52.480;9.806;2023-03-17T01:21:24;4.13;;;2.10;;
19347;SDS011;9810;52.480;9.806;2023-03-17T01:23:53;4.83;;;2.00;;
19347;SDS011;9810;52.480;9.806;2023-03-17T01:26:24;2.20;;;1.80;;
19347;SDS011;9810;52.480;9.806;2023-03-17T01:28:56;5.03;;;2.00;;
19347;SDS011;9810;52.480;9.806;2023-03-17T01:31:23;3.93;;;2.00;;
19347;SDS011;9810;52.480;9.806;2023-03-17T01:33:52;3.90;;;2.00;;
19347;SDS011;9810;52.480;9.806;2023-03-17T01:36:28;3.37;;;2.30;;
19347;SDS011;9810;52.480;9.806;2023-03-17T01:38:57;3.47;;;2.00;;
19347;SDS011;9810;52.480;9.806;2023-03-17T01:41:37;3.70;;;2.23;;
19347;SDS011;9810;52.480;9.806;2023-03-17T01:44:05;3.50;;;2.20;;
19347;SDS011;9810;52.480;9.806;2023-03-17T01:46:38;3.50;;;2.10;;
19347;SDS011;9810;52.480;9.806;2023-03-17T01:49:13;3.30;;;2.23;;
19347;SDS011;9810;52.480;9.806;2023-03-17T01:51:49;2.87;;;2.07;;
19347;SDS011;9810;52.480;9.806;2023-03-17T01:54:23;3.50;;;3.20;;
19347;SDS011;9810;52.480;9.806;2023-03-17T01:57:02;2.73;;;2.13;;
19347;SDS011;9810;52.480;9.806;2023-03-17T01:59:36;3.80;;;2.30;;
19347;SDS011;9810;52.480;9.806;2023-03-17T02:02:19;2.73;;;2.23;;
19347;SDS011;9810;52.480;9.806;2023-03-17T02:04:51;3.37;;;2.70;;
19347;SDS011;9810;52.480;9.806;2023-03-17T02:07:31;4.20;;;2.47;;
19347;SDS011;9810;52.480;9.806;2023-03-17T02:10:01;2.80;;;2.40;;
19347;SDS011;9810;52.480;9.806;2023-03-17T02:12:33;3.50;;;2.37;;
19347;SDS011;9810;52.480;9.806;2023-03-17T02:15:13;5.20;;;2.33;;
19347;SDS011;9810;52.480;9.806;2023-03-17T02:17:44;4.13;;;2.57;;
19347;SDS011;9810;52.480;9.806;2023-03-17T02:23:23;4.30;;;2.37;;
19347;SDS011;9810;52.480;9.806;2023-03-17T02:25:51;3.53;;;2.23;;
19347;SDS011;9810;52.480;9.806;2023-03-17T02:28:20;2.77;;;1.90;;
19347;SDS011;9810;52.480;9.806;2023-03-17T02:30:51;2.57;;;2.23;;
19347;SDS011;9810;52.480;9.806;2023-03-17T02:33:18;5.10;;;2.33;;
19347;SDS011;9810;52.480;9.806;2023-03-17T02:35:54;2.50;;;2.00;;
19347;SDS011;9810;52.480;9.806;2023-03-17T02:38:25;3.83;;;2.97;;
19347;SDS011;9810;52.480;9.806;2023-03-17T02:41:12;3.77;;;2.37;;
19347;SDS011;9810;52.480;9.806;2023-03-17T02:43:44;5.43;;;3.83;;
19347;SDS011;9810;52.480;9.806;2023-03-17T02:46:17;3.50;;;2.70;;
19347;SDS011;9810;52.480;9.806;2023-03-17T02:48:47;6.20;;;3.13;;
19347;SDS011;9810;52.480;9.806;2023-03-17T02:51:25;4.23;;;2.57;;
19347;SDS011;9810;52.480;9.806;2023-03-17T02:54:10;3.70;;;2.73;;
19347;SDS011;9810;52.480;9.806;2023-03-17T02:56:45;5.10;;;2.57;;
19347;SDS011;9810;52.480;9.806;2023-03-17T03:02:20;3.70;;;2.37;;
19347;SDS011;9810;52.480;9.806;2023-03-17T03:05:22;4.87;;;2.77;;
19347;SDS011;9810;52.480;9.806;2023-03-17T03:08:03;3.13;;;2.23;;
19347;SDS011;9810;52.480;9.806;2023-03-17T03:13:19;5.03;;;2.53;;
19347;SDS011;9810;52.480;9.806;2023-03-17T03:15:46;2.97;;;2.20;;
19347;SDS011;9810;52.480;9.806;2023-03-17T03:18:23;4.33;;;3.37;;
19347;SDS011;9810;52.480;9.806;2023-03-17T03:21:13;3.47;;;2.20;;
19347;SDS011;9810;52.480;9.806;2023-03-17T03:23:50;6.10;;;3.10;;
19347;SDS011;9810;52.480;9.806;2023-03-17T03:26:28;3.70;;;2.77;;
19347;SDS011;9810;52.480;9.806;2023-03-17T03:28:59;4.63;;;2.63;;
19347;SDS011;9810;52.480;9.806;2023-03-17T03:31:33;4.03;;;2.80;;
19347;SDS011;9810;52.480;9.806;2023-03-17T03:34:30;4.50;;;2.83;;
19347;SDS011;9810;52.480;9.806;2023-03-17T03:37:05;6.07;;;2.37;;
19347;SDS011;9810;52.480;9.806;2023-03-17T03:39:34;4.97;;;3.10;;
19347;SDS011;9810;52.480;9.806;2023-03-17T03:42:12;3.90;;;2.80;;
19347;SDS011;9810;52.480;9.806;2023-03-17T03:44:43;4.70;;;2.50;;
19347;SDS011;9810;52.480;9.806;2023-03-17T03:47:20;5.77;;;2.73;;
19347;SDS011;9810;52.480;9.806;2023-03-17T03:49:52;3.97;;;2.93;;
19347;SDS011;9810;52.480;9.806;2023-03-17T03:52:33;4.43;;;2.77;;
19347;SDS011;9810;52.480;9.806;2023-03-17T03:55:15;4.00;;;2.73;;
19347;SDS011;9810;52.480;9.806;2023-03-17T03:57:53;4.30;;;2.97;;
19347;SDS011;9810;52.480;9.806;2023-03-17T04:00:26;4.07;;;2.70;;
19347;SDS011;9810;52.480;9.806;2023-03-17T04:03:01;6.17;;;3.30;;
19347;SDS011;9810;52.480;9.806;2023-03-17T04:05:54;4.50;;;3.40;;
19347;SDS011;9810;52.480;9.806;2023-03-17T04:08:32;3.63;;;2.47;;
19347;SDS011;9810;52.480;9.806;2023-03-17T04:11:06;5.10;;;3.30;;
19347;SDS011;9810;52.480;9.806;2023-03-17T04:16:48;8.53;;;2.47;;
19347;SDS011;9810;52.480;9.806;2023-03-17T04:19:25;4.77;;;3.17;;
19347;SDS011;9810;52.480;9.806;2023-03-17T04:22:00;4.20;;;2.67;;
19347;SDS011;9810;52.480;9.806;2023-03-17T04:24:32;4.53;;;2.50;;
19347;SDS011;9810;52.480;9.806;2023-03-17T04:27:05;4.47;;;2.40;;
19347;SDS011;9810;52.480;9.806;2023-03-17T04:32:38;4.70;;;2.80;;
19347;SDS011;9810;52.480;9.806;2023-03-17T04:35:05;5.03;;;3.07;;
19347;SDS011;9810;52.480;9.806;2023-03-17T04:37:36;3.47;;;2.67;;
19347;SDS011;9810;52.480;9.806;2023-03-17T04:40:04;5.90;;;2.87;;
19347;SDS011;9810;52.480;9.806;2023-03-17T04:42:39;4.37;;;2.87;;
19347;SDS011;9810;52.480;9.806;2023-03-17T04:45:15;4.80;;;2.77;;
19347;SDS011;9810;52.480;9.806;2023-03-17T04:47:43;5.70;;;2.77;;
19347;SDS011;9810;52.480;9.806;2023-03-17T04:50:13;5.37;;;3.07;;
19347;SDS011;9810;52.480;9.806;2023-03-17T04:52:42;5.67;;;2.80;;
19347;SDS011;9810;52.480;9.806;2023-03-17T04:55:10;5.13;;;3.03;;
19347;SDS011;9810;52.480;9.806;2023-03-17T04:57:37;4.07;;;2.70;;
19347;SDS011;9810;52.480;9.806;2023-03-17T05:00:06;5.37;;;2.57;;
19347;SDS011;9810;52.480;9.806;2023-03-17T05:02:36;4.33;;;2.80;;
19347;SDS011;9810;52.480;9.806;2023-03-17T05:05:05;4.30;;;2.53;;
19347;SDS011;9810;52.480;9.806;2023-03-17T05:07:32;4.67;;;3.30;;
19347;SDS011;9810;52.480;9.806;2023-03-17T05:10:00;7.40;;;3.23;;
19347;SDS011;9810;52.480;9.806;2023-03-17T05:12:27;4.73;;;3.23;;
19347;SDS011;9810;52.480;9.806;2023-03-17T05:14:55;4.80;;;2.67;;
19347;SDS011;9810;52.480;9.806;2023-03-17T05:17:22;6.93;;;3.10;;
19347;SDS011;9810;52.480;9.806;2023-03-17T05:19:51;7.07;;;3.87;;
19347;SDS011;9810;52.480;9.806;2023-03-17T05:22:21;6.93;;;3.20;;
19347;SDS011;9810;52.480;9.806;2023-03-17T05:24:51;3.73;;;3.17;;
19347;SDS011;9810;52.480;9.806;2023-03-17T05:27:18;8.57;;;2.87;;
19347;SDS011;9810;52.480;9.806;2023-03-17T05:29:48;8.93;;;2.97;;
19347;SDS011;9810;52.480;9.806;2023-03-17T05:32:15;3.87;;;2.47;;
19347;SDS011;9810;52.480;9.806;2023-03-17T05:34:46;4.40;;;2.77;;
19347;SDS011;9810;52.480;9.806;2023-03-17T05:37:16;5.17;;;2.60;;
19347;SDS011;9810;52.480;9.806;2023-03-17T05:39:51;5.37;;;3.20;;
19347;SDS011;9810;52.480;9.806;2023-03-17T05:42:18;6.93;;;3.03;;
19347;SDS011;9810;52.480;9.806;2023-03-17T05:44:47;5.33;;;3.23;;
19347;SDS011;9810;52.480;9.806;2023-03-17T05:47:14;5.27;;;3.03;;
19347;SDS011;9810;52.480;9.806;2023-03-17T05:49:42;7.80;;;2.90;;
19347;SDS011;9810;52.480;9.806;2023-03-17T05:52:09;5.40;;;3.40;;
19347;SDS011;9810;52.480;9.806;2023-03-17T05:54:47;6.03;;;3.63;;
19347;SDS011;9810;52.480;9.806;2023-03-17T05:57:18;6.10;;;3.40;;
19347;SDS011;9810;52.480;9.806;2023-03-17T05:59:53;3.70;;;3.20;;
19347;SDS011;9810;52.480;9.806;2023-03-17T06:02:22;4.33;;;2.70;;
19347;SDS011;9810;52.480;9.806;2023-03-17T06:04:52;7.80;;;3.40;;
19347;SDS011;9810;52.480;9.806;2023-03-17T06:07:22;4.20;;;2.57;;
19347;SDS011;9810;52.480;9.806;2023-03-17T06:09:52;5.23;;;3.00;;
19347;SDS011;9810;52.480;9.806;2023-03-17T06:12:22;4.20;;;2.90;;
19347;SDS011;9810;52.480;9.806;2023-03-17T06:14:57;4.17;;;2.90;;
19347;SDS011;9810;52.480;9.806;2023-03-17T06:17:31;6.47;;;3.20;;
19347;SDS011;9810;52.480;9.806;2023-03-17T06:19:59;5.90;;;3.80;;
19347;SDS011;9810;52.480;9.806;2023-03-17T06:22:31;6.40;;;3.40;;
19347;SDS011;9810;52.480;9.806;2023-03-17T06:25:05;7.57;;;3.57;;
19347;SDS011;9810;52.480;9.806;2023-03-17T06:27:36;5.87;;;3.30;;
19347;SDS011;9810;52.480;9.806;2023-03-17T06:30:04;6.50;;;3.90;;
19347;SDS011;9810;52.480;9.806;2023-03-17T06:32:44;5.13;;;3.23;;
19347;SDS011;9810;52.480;9.806;2023-03-17T06:35:14;7.50;;;2.77;;
19347;SDS011;9810;52.480;9.806;2023-03-17T06:37:55;4.60;;;3.07;;
19347;SDS011;9810;52.480;9.806;2023-03-17T06:40:25;4.73;;;2.83;;
19347;SDS011;9810;52.480;9.806;2023-03-17T06:42:57;4.67;;;3.10;;
19347;SDS011;9810;52.480;9.806;2023-03-17T06:45:28;9.30;;;2.80;;
19347;SDS011;9810;52.480;9.806;2023-03-17T06:48:05;4.13;;;2.80;;
19347;SDS011;9810;52.480;9.806;2023-03-17T06:50:37;5.70;;;2.90;;
19347;SDS011;9810;52.480;9.806;2023-03-17T06:53:07;3.87;;;2.67;;
19347;SDS011;9810;52.480;9.806;2023-03-17T06:55:47;3.70;;;2.70;;
19347;SDS011;9810;52.480;9.806;2023-03-17T06:58:20;3.60;;;2.70;;
19347;SDS011;9810;52.480;9.806;2023-03-17T07:00:52;4.90;;;2.70;;
19347;SDS011;9810;52.480;9.806;2023-03-17T07:03:26;6.30;;;3.17;;
19347;SDS011;9810;52.480;9.806;2023-03-17T07:05:55;4.23;;;2.40;;
19347;SDS011;9810;52.480;9.806;2023-03-17T07:08:24;3.30;;;2.17;;
19347;SDS011;9810;52.480;9.806;2023-03-17T07:11:00;5.40;;;2.53;;
19347;SDS011;9810;52.480;9.806;2023-03-17T07:13:30;2.97;;;2.30;;
19347;SDS011;9810;52.480;9.806;2023-03-17T07:16:01;2.87;;;2.60;;
19347;SDS011;9810;52.480;9.806;2023-03-17T07:18:36;3.27;;;2.27;;
19347;SDS011;9810;52.480;9.806;2023-03-17T07:21:04;5.33;;;2.50;;
19347;SDS011;9810;52.480;9.806;2023-03-17T07:23:33;4.53;;;2.73;;
19347;SDS011;9810;52.480;9.806;2023-03-17T07:26:04;2.27;;;1.90;;
19347;SDS011;9810;52.480;9.806;2023-03-17T07:28:45;3.10;;;2.40;;
19347;SDS011;9810;52.480;9.806;2023-03-17T07:31:26;2.23;;;2.03;;
19347;SDS011;9810;52.480;9.806;2023-03-17T07:33:54;5.10;;;2.10;;
19347;SDS011;9810;52.480;9.806;2023-03-17T07:36:31;4.80;;;3.23;;
19347;SDS011;9810;52.480;9.806;2023-03-17T07:39:02;3.87;;;1.90;;
19347;SDS011;9810;52.480;9.806;2023-03-17T07:41:39;7.67;;;2.50;;
19347;SDS011;9810;52.480;9.806;2023-03-17T07:44:08;5.30;;;2.13;;
19347;SDS011;9810;52.480;9.806;2023-03-17T07:46:36;2.73;;;2.03;;
19347;SDS011;9810;52.480;9.806;2023-03-17T07:49:04;2.93;;;2.43;;
19347;SDS011;9810;52.480;9.806;2023-03-17T07:51:33;4.93;;;2.70;;
19347;SDS011;9810;52.480;9.806;2023-03-17T07:54:08;3.03;;;2.53;;
19347;SDS011;9810;52.480;9.806;2023-03-17T07:56:38;5.20;;;2.50;;
19347;SDS011;9810;52.480;9.806;2023-03-17T07:59:27;5.43;;;2.57;;
19347;SDS011;9810;52.480;9.806;2023-03-17T08:02:02;2.67;;;2.43;;
19347;SDS011;9810;52.480;9.806;2023-03-17T08:04:30;5.37;;;2.87;;
19347;SDS011;9810;52.480;9.806;2023-03-17T08:07:09;3.70;;;2.47;;
19347;SDS011;9810;52.480;9.806;2023-03-17T08:09:54;4.87;;;2.53;;
19347;SDS011;9810;52.480;9.806;2023-03-17T08:12:38;3.23;;;2.27;;
19347;SDS011;9810;52.480;9.806;2023-03-17T08:15:29;2.17;;;1.80;;
19347;SDS011;9810;52.480;9.806;2023-03-17T08:18:00;3.67;;;2.30;;
19347;SDS011;9810;52.480;9.806;2023-03-17T08:20:30;5.07;;;2.70;;
19347;SDS011;9810;52.480;9.806;2023-03-17T08:23:01;3.20;;;2.40;;
19347;SDS011;9810;52.480;9.806;2023-03-17T08:25:38;3.90;;;2.37;;
19347;SDS011;9810;52.480;9.806;2023-03-17T08:28:27;2.87;;;1.70;;
19347;SDS011;9810;52.480;9.806;2023-03-17T08:31:05;3.50;;;2.40;;
19347;SDS011;9810;52.480;9.806;2023-03-17T08:33:41;2.20;;;1.90;;
19347;SDS011;9810;52.480;9.806;2023-03-17T08:36:15;2.63;;;1.90;;
19347;SDS011;9810;52.480;9.806;2023-03-17T08:38:46;3.70;;;2.17;;
19347;SDS011;9810;52.480;9.806;2023-03-17T08:41:19;4.13;;;2.47;;
19347;SDS011;9810;52.480;9.806;2023-03-17T08:43:55;3.77;;;2.50;;
19347;SDS011;9810;52.480;9.806;2023-03-17T08:46:23;3.07;;;2.37;;
19347;SDS011;9810;52.480;9.806;2023-03-17T08:48:59;6.10;;;2.03;;
19347;SDS011;9810;52.480;9.806;2023-03-17T08:51:31;2.77;;;1.80;;
19347;SDS011;9810;52.480;9.806;2023-03-17T08:54:03;4.50;;;1.93;;
19347;SDS011;9810;52.480;9.806;2023-03-17T08:56:36;3.20;;;2.33;;
19347;SDS011;9810;52.480;9.806;2023-03-17T08:59:09;3.67;;;2.10;;
19347;SDS011;9810;52.480;9.806;2023-03-17T09:01:41;3.67;;;2.30;;
19347;SDS011;9810;52.480;9.806;2023-03-17T09:04:26;2.53;;;2.27;;
19347;SDS011;9810;52.480;9.806;2023-03-17T09:06:54;2.73;;;2.43;;
19347;SDS011;9810;52.480;9.806;2023-03-17T09:09:26;1.90;;;1.80;;
19347;SDS011;9810;52.480;9.806;2023-03-17T09:11:57;3.23;;;2.20;;
19347;SDS011;9810;52.480;9.806;2023-03-17T09:14:31;3.00;;;1.93;;
19347;SDS011;9810;52.480;9.806;2023-03-17T09:17:05;4.80;;;1.90;;
19347;SDS011;9810;52.480;9.806;2023-03-17T09:19:35;2.30;;;2.10;;
19347;SDS011;9810;52.480;9.806;2023-03-17T09:22:28;5.33;;;2.13;;
19347;SDS011;9810;52.480;9.806;2023-03-17T09:24:58;3.10;;;2.13;;
19347;SDS011;9810;52.480;9.806;2023-03-17T09:27:29;2.27;;;1.67;;
19347;SDS011;9810;52.480;9.806;2023-03-17T09:30:06;2.07;;;1.87;;
19347;SDS011;9810;52.480;9.806;2023-03-17T09:32:38;2.40;;;2.20;;
19347;SDS011;9810;52.480;9.806;2023-03-17T09:35:10;4.57;;;2.10;;
19347;SDS011;9810;52.480;9.806;2023-03-17T09:37:42;2.33;;;1.70;;
19347;SDS011;9810;52.480;9.806;2023-03-17T09:40:16;2.30;;;1.90;;
19347;SDS011;9810;52.480;9.806;2023-03-17T09:42:52;1.73;;;1.57;;
19347;SDS011;9810;52.480;9.806;2023-03-17T09:45:39;1.93;;;1.50;;
19347;SDS011;9810;52.480;9.806;2023-03-17T09:48:30;1.60;;;1.50;;
19347;SDS011;9810;52.480;9.806;2023-03-17T09:51:24;2.03;;;1.50;;
19347;SDS011;9810;52.480;9.806;2023-03-17T09:53:59;2.93;;;1.70;;
19347;SDS011;9810;52.480;9.806;2023-03-17T09:56:45;2.30;;;2.00;;
19347;SDS011;9810;52.480;9.806;2023-03-17T09:59:27;2.83;;;1.57;;
19347;SDS011;9810;52.480;9.806;2023-03-17T10:02:09;3.00;;;1.93;;
19347;SDS011;9810;52.480;9.806;2023-03-17T10:05:06;1.97;;;1.60;;
19347;SDS011;9810;52.480;9.806;2023-03-17T10:07:48;3.33;;;1.50;;
19347;SDS011;9810;52.480;9.806;2023-03-17T10:10:27;2.03;;;1.50;;
19347;SDS011;9810;52.480;9.806;2023-03-17T10:13:05;1.70;;;1.60;;
19347;SDS011;9810;52.480;9.806;2023-03-17T10:15:47;2.23;;;1.80;;
19347;SDS011;9810;52.480;9.806;2023-03-17T10:18:45;2.23;;;1.57;;
19347;SDS011;9810;52.480;9.806;2023-03-17T10:21:27;2.67;;;1.60;;
19347;SDS011;9810;52.480;9.806;2023-03-17T10:24:02;2.23;;;1.60;;
19347;SDS011;9810;52.480;9.806;2023-03-17T10:26:38;2.13;;;1.67;;
19347;SDS011;9810;52.480;9.806;2023-03-17T10:29:31;2.87;;;1.80;;
19347;SDS011;9810;52.480;9.806;2023-03-17T10:35:12;1.50;;;1.40;;
19347;SDS011;9810;52.480;9.806;2023-03-17T10:37:45;1.63;;;1.50;;
19347;SDS011;9810;52.480;9.806;2023-03-17T10:40:34;1.73;;;1.43;;
19347;SDS011;9810;52.480;9.806;2023-03-17T10:43:17;2.17;;;1.53;;
19347;SDS011;9810;52.480;9.806;2023-03-17T10:46:29;3.47;;;2.00;;
19347;SDS011;9810;52.480;9.806;2023-03-17T10:49:05;2.50;;;1.30;;
19347;SDS011;9810;52.480;9.806;2023-03-17T10:54:37;2.77;;;1.40;;
19347;SDS011;9810;52.480;9.806;2023-03-17T10:57:14;2.57;;;1.57;;
19347;SDS011;9810;52.480;9.806;2023-03-17T11:00:02;4.07;;;1.67;;
19347;SDS011;9810;52.480;9.806;2023-03-17T11:03:15;2.07;;;1.60;;
19347;SDS011;9810;52.480;9.806;2023-03-17T11:05:59;2.27;;;1.60;;
19347;SDS011;9810;52.480;9.806;2023-03-17T11:08:38;2.27;;;1.50;;
19347;SDS011;9810;52.480;9.806;2023-03-17T11:11:22;2.43;;;1.60;;
19347;SDS011;9810;52.480;9.806;2023-03-17T11:14:00;2.73;;;1.50;;
19347;SDS011;9810;52.480;9.806;2023-03-17T11:16:34;1.13;;;1.10;;
19347;SDS011;9810;52.480;9.806;2023-03-17T11:19:13;2.85;;;1.98;;
19347;SDS011;9810;52.480;9.806;2023-03-17T11:21:56;3.47;;;1.50;;
19347;SDS011;9810;52.480;9.806;2023-03-17T11:24:43;3.00;;;1.83;;
19347;SDS011;9810;52.480;9.806;2023-03-17T11:27:31;1.43;;;1.33;;
19347;SDS011;9810;52.480;9.806;2023-03-17T11:30:31;2.73;;;1.70;;
19347;SDS011;9810;52.480;9.806;2023-03-17T11:33:41;2.23;;;1.77;;
19347;SDS011;9810;52.480;9.806;2023-03-17T11:36:25;1.87;;;1.60;;
19347;SDS011;9810;52.480;9.806;2023-03-17T11:45:15;3.13;;;1.90;;
19347;SDS011;9810;52.480;9.806;2023-03-17T11:47:56;2.33;;;1.77;;
19347;SDS011;9810;52.480;9.806;2023-03-17T11:50:54;3.40;;;1.70;;
19347;SDS011;9810;52.480;9.806;2023-03-17T11:56:46;2.70;;;1.60;;
19347;SDS011;9810;52.480;9.806;2023-03-17T11:59:26;2.53;;;1.57;;
19347;SDS011;9810;52.480;9.806;2023-03-17T12:02:04;4.23;;;1.83;;
19347;SDS011;9810;52.480;9.806;2023-03-17T12:04:51;1.93;;;1.37;;
19347;SDS011;9810;52.480;9.806;2023-03-17T12:07:39;1.80;;;1.27;;
19347;SDS011;9810;52.480;9.806;2023-03-17T12:10:23;2.13;;;1.53;;
19347;SDS011;9810;52.480;9.806;2023-03-17T12:13:06;3.90;;;1.10;;
19347;SDS011;9810;52.480;9.806;2023-03-17T12:15:47;2.37;;;1.77;;
19347;SDS011;9810;52.480;9.806;2023-03-17T12:18:33;2.40;;;1.43;;
19347;SDS011;9810;52.480;9.806;2023-03-17T12:21:14;2.47;;;1.53;;
19347;SDS011;9810;52.480;9.806;2023-03-17T12:23:54;2.20;;;1.23;;
19347;SDS011;9810;52.480;9.806;2023-03-17T12:26:38;2.87;;;1.20;;
19347;SDS011;9810;52.480;9.806;2023-03-17T12:29:18;3.73;;;1.43;;
19347;SDS011;9810;52.480;9.806;2023-03-17T12:35:22;6.30;;;1.90;;
19347;SDS011;9810;52.480;9.806;2023-03-17T12:37:54;2.77;;;1.63;;
19347;SDS011;9810;52.480;9.806;2023-03-17T12:40:24;3.23;;;1.60;;
19347;SDS011;9810;52.480;9.806;2023-03-17T12:43:31;2.10;;;1.37;;
19347;SDS011;9810;52.480;9.806;2023-03-17T12:46:11;2.40;;;1.40;;
19347;SDS011;9810;52.480;9.806;2023-03-17T12:52:33;1.63;;;1.20;;
19347;SDS011;9810;52.480;9.806;2023-03-17T12:55:21;2.60;;;1.47;;
19347;SDS011;9810;52.480;9.806;2023-03-17T12:58:00;2.80;;;1.40;;
19347;SDS011;9810;52.480;9.806;2023-03-17T13:00:48;1.87;;;1.30;;
19347;SDS011;9810;52.480;9.806;2023-03-17T13:03:32;5.70;;;1.33;;
19347;SDS011;9810;52.480;9.806;2023-03-17T13:06:03;3.13;;;1.60;;
19347;SDS011;9810;52.480;9.806;2023-03-17T13:08:38;2.13;;;1.23;;
19347;SDS011;9810;52.480;9.806;2023-03-17T13:11:24;3.53;;;1.27;;
19347;SDS011;9810;52.480;9.806;2023-03-17T13:14:05;3.37;;;1.40;;
19347;SDS011;9810;52.480;9.806;2023-03-17T13:17:01;3.27;;;1.77;;
19347;SDS011;9810;52.480;9.806;2023-03-17T13:19:59;2.87;;;1.40;;
19347;SDS011;9810;52.480;9.806;2023-03-17T13:23:10;2.93;;;1.23;;
19347;SDS011;9810;52.480;9.806;2023-03-17T13:25:54;2.97;;;1.43;;
19347;SDS011;9810;52.480;9.806;2023-03-17T13:28:38;1.93;;;1.37;;
19347;SDS011;9810;52.480;9.806;2023-03-17T13:31:14;3.20;;;1.47;;
19347;SDS011;9810;52.480;9.806;2023-03-17T13:34:11;3.33;;;1.70;;
19347;SDS011;9810;52.480;9.806;2023-03-17T13:36:47;3.43;;;1.37;;
19347;SDS011;9810;52.480;9.806;2023-03-17T13:39:43;2.10;;;1.10;;
19347;SDS011;9810;52.480;9.806;2023-03-17T13:42:42;1.33;;;1.23;;
19347;SDS011;9810;52.480;9.806;2023-03-17T13:51:02;2.07;;;1.17;;
19347;SDS011;9810;52.480;9.806;2023-03-17T13:53:53;2.70;;;1.50;;
19347;SDS011;9810;52.480;9.806;2023-03-17T13:56:48;2.53;;;0.93;;
19347;SDS011;9810;52.480;9.806;2023-03-17T13:59:18;2.37;;;1.40;;
19347;SDS011;9810;52.480;9.806;2023-03-17T14:01:53;2.63;;;1.27;;
19347;SDS011;9810;52.480;9.806;2023-03-17T14:04:24;2.60;;;1.23;;
19347;SDS011;9810;52.480;9.806;2023-03-17T14:06:55;3.03;;;1.23;;
19347;SDS011;9810;52.480;9.806;2023-03-17T14:09:33;3.00;;;1.10;;
19347;SDS011;9810;52.480;9.806;2023-03-17T14:12:04;1.47;;;0.70;;
19347;SDS011;9810;52.480;9.806;2023-03-17T14:14:41;2.23;;;1.17;;
19347;SDS011;9810;52.480;9.806;2023-03-17T14:17:15;2.10;;;1.30;;
19347;SDS011;9810;52.480;9.806;2023-03-17T14:20:02;1.93;;;0.63;;
19347;SDS011;9810;52.480;9.806;2023-03-17T14:22:39;1.43;;;1.00;;
19347;SDS011;9810;52.480;9.806;2023-03-17T14:25:14;2.60;;;1.20;;
19347;SDS011;9810;52.480;9.806;2023-03-17T14:27:44;1.47;;;1.00;;
19347;SDS011;9810;52.480;9.806;2023-03-17T14:30:16;0.83;;;0.83;;
19347;SDS011;9810;52.480;9.806;2023-03-17T14:35:38;1.17;;;1.00;;
19347;SDS011;9810;52.480;9.806;2023-03-17T14:38:18;2.07;;;1.13;;
19347;SDS011;9810;52.480;9.806;2023-03-17T14:44:01;1.23;;;1.03;;
19347;SDS011;9810;52.480;9.806;2023-03-17T14:46:30;2.73;;;1.00;;
19347;SDS011;9810;52.480;9.806;2023-03-17T14:49:13;1.10;;;1.00;;
19347;SDS011;9810;52.480;9.806;2023-03-17T14:51:48;3.27;;;0.90;;
19347;SDS011;9810;52.480;9.806;2023-03-17T14:54:20;2.60;;;0.80;;
19347;SDS011;9810;52.480;9.806;2023-03-17T14:57:15;1.93;;;1.03;;
19347;SDS011;9810;52.480;9.806;2023-03-17T14:59:55;4.20;;;1.00;;
19347;SDS011;9810;52.480;9.806;2023-03-17T15:02:40;2.77;;;0.97;;
19347;SDS011;9810;52.480;9.806;2023-03-17T15:05:15;1.53;;;1.00;;
19347;SDS011;9810;52.480;9.806;2023-03-17T15:07:51;2.53;;;1.20;;
19347;SDS011;9810;52.480;9.806;2023-03-17T15:10:38;4.43;;;2.07;;
19347;SDS011;9810;52.480;9.806;2023-03-17T15:13:18;2.50;;;1.10;;
19347;SDS011;9810;52.480;9.806;2023-03-17T15:15:46;1.37;;;0.73;;
19347;SDS011;9810;52.480;9.806;2023-03-17T15:18:17;2.40;;;0.73;;
19347;SDS011;9810;52.480;9.806;2023-03-17T15:20:49;1.77;;;1.13;;
19347;SDS011;9810;52.480;9.806;2023-03-17T15:23:35;0.87;;;0.60;;
19347;SDS011;9810;52.480;9.806;2023-03-17T15:26:20;1.53;;;1.00;;
19347;SDS011;9810;52.480;9.806;2023-03-17T15:28:58;0.80;;;0.70;;
19347;SDS011;9810;52.480;9.806;2023-03-17T15:31:27;6.13;;;0.70;;
19347;SDS011;9810;52.480;9.806;2023-03-17T15:33:55;1.07;;;0.87;;
19347;SDS011;9810;52.480;9.806;2023-03-17T15:36:23;1.60;;;0.73;;
19347;SDS011;9810;52.480;9.806;2023-03-17T15:38:53;3.90;;;1.33;;
19347;SDS011;9810;52.480;9.806;2023-03-17T15:41:27;1.63;;;0.97;;
19347;SDS011;9810;52.480;9.806;2023-03-17T15:44:01;1.13;;;0.97;;
19347;SDS011;9810;52.480;9.806;2023-03-17T15:46:32;2.63;;;1.00;;
19347;SDS011;9810;52.480;9.806;2023-03-17T15:49:08;1.10;;;0.77;;
19347;SDS011;9810;52.480;9.806;2023-03-17T15:51:41;1.57;;;0.93;;
19347;SDS011;9810;52.480;9.806;2023-03-17T15:54:13;4.17;;;0.80;;
19347;SDS011;9810;52.480;9.806;2023-03-17T15:56:43;0.70;;;0.70;;
19347;SDS011;9810;52.480;9.806;2023-03-17T15:59:15;3.17;;;0.70;;
19347;SDS011;9810;52.480;9.806;2023-03-17T16:01:54;0.93;;;0.77;;
19347;SDS011;9810;52.480;9.806;2023-03-17T16:04:28;1.67;;;1.00;;
19347;SDS011;9810;52.480;9.806;2023-03-17T16:06:56;1.90;;;0.73;;
19347;SDS011;9810;52.480;9.806;2023-03-17T16:09:31;1.93;;;0.83;;
19347;SDS011;9810;52.480;9.806;2023-03-17T16:12:04;3.10;;;1.00;;
19347;SDS011;9810;52.480;9.806;2023-03-17T16:14:36;2.30;;;0.80;;
19347;SDS011;9810;52.480;9.806;2023-03-17T16:17:17;3.53;;;0.93;;
19347;SDS011;9810;52.480;9.806;2023-03-17T16:19:54;5.33;;;1.17;;
19347;SDS011;9810;52.480;9.806;2023-03-17T16:22:35;1.60;;;1.10;;
19347;SDS011;9810;52.480;9.806;2023-03-17T16:25:21;2.57;;;1.10;;
19347;SDS011;9810;52.480;9.806;2023-03-17T16:27:57;2.23;;;1.00;;
19347;SDS011;9810;52.480;9.806;2023-03-17T16:30:31;2.43;;;0.83;;
19347;SDS011;9810;52.480;9.806;2023-03-17T16:33:10;1.27;;;1.10;;
19347;SDS011;9810;52.480;9.806;2023-03-17T16:35:48;3.50;;;1.00;;
19347;SDS011;9810;52.480;9.806;2023-03-17T16:38:21;1.87;;;0.87;;
19347;SDS011;9810;52.480;9.806;2023-03-17T16:40:50;2.17;;;0.90;;
19347;SDS011;9810;52.480;9.806;2023-03-17T16:43:23;1.50;;;0.80;;
19347;SDS011;9810;52.480;9.806;2023-03-17T16:46:01;3.20;;;0.97;;